Saline County Regional Airport
KSUZ : now visible

Airfield :











YOU CAN JOIN US ON...

 
LOGIN :

Register | Disclaimer

   EN    FR    IT 

 









Legend :    VFR   Marginal VFR   IFR   Intensive IFR   Very Intensive IFR
Visi :
Ceiling :
>= 8 km
>= 3000ft
5 to 8 km
1000 to 3000 ft
1500m to 5 km
500 to 1000 ft
800 to 1500m
200 to 500 ft
< 800m
< 200 ft
Symbols :   Thunderstorms  Fog  Heavy snow  Heavy precipitations  Wind > 20 kt






- Airport Elevation : 390 ft


KSUZ - Saline County Regional

CURRENT METAR :
  • 181715Z AUTO 13006KT 8SM FEW025 29/26 A3001 RMK A01

EXPIRED METARs :
  • 181655Z AUTO 11008KT 8SM FEW018 29/25 A3001 RMK A01
  • 181635Z AUTO 10009KT 7SM SCT014 BKN020 28/26 A3001 RMK A01
  • 181615Z AUTO VRB04KT 6SM BR BKN013 27/26 A3001 RMK A01
  • 181555Z AUTO 00000KT 8SM CLR 26/25 A3001 RMK A01
  • 181535Z AUTO 12004KT 7SM FEW013 26/25 A3002 RMK A01
  • 181515Z AUTO 13004KT 6SM BR BKN012 25/25 A3002 RMK A01
  • 181455Z AUTO 13003KT 7SM BKN011 25/25 A3002 RMK A01
  • 181415Z AUTO 12005KT 8SM SCT008 SCT012 24/24 A3002 RMK A01
  • 181355Z AUTO 12006KT 7SM FEW009 FEW012 24/24 A3002 RMK A01
  • 181315Z AUTO 10004KT 8SM FEW006 24/24 A3001 RMK A01
  • 181255Z AUTO 12004KT 7SM FEW006 23/23 A3001 RMK A01
  • 181235Z AUTO 12004KT 7SM FEW005 23/23 A3000 RMK A01

TAF N/A
KZME FIR / North America



MET'MAP, your aeronautical weather chart ! - Copyright ORBIFLY December 2007 - Disclaimer

ORBIFLY MET'MAP TEAM :

Programming & Development : Alexandra Zaïnal
Original concept : Baudouin d'Aumeries
Technical & hardware support : Manuel Goepfert
Assistance : Marc-Olivier Méhu




SOURCES & CREDITS :

   NOAA       Earth
Advisory